Terminal Aerodrome Forecast
Issued by NWS Lake Charles, LA

Home | Current Version | Previous Version | Text Only | Print | Product List | Glossary On
Versions: 1 2 3 4 5 6 7 8 9 10 11 12 13 14 15 16 17 18 19 20
000
FTUS44 KLCH 192300
TAFAEX
TAF
KAEX 192320Z 2000/2024 17003KT P6SM SKC
      TEMPO 2009/2013 4SM BR
     FM201500 20005KT P6SM FEW030
     FM201800 17006KT P6SM VCTS SCT050CB
      TEMPO 2019/2023 5SM -TSRA BKN025CB
     FM202300 16006KT P6SM BKN120=

USA.gov is the U.S. government's official web portal to all federal, state and local government web resources and services.